createdAt,value
2023-02-19T00:01:31.518Z,101731.88
2023-02-19T00:03:03.976Z,101739.72
2023-02-19T00:04:35.933Z,101736.25
2023-02-19T00:06:15.465Z,101741.44
2023-02-19T00:07:49.668Z,101732.72
2023-02-19T00:09:21.873Z,101733.59
2023-02-19T00:10:54.050Z,101726.59
2023-02-19T00:12:26.071Z,101738.81
2023-02-19T00:13:59.206Z,101731.84
2023-02-19T00:15:34.151Z,101737.94
2023-02-19T00:17:08.274Z,101723.13
2023-02-19T00:18:43.110Z,101724.84
2023-02-19T00:20:15.108Z,101728.34
2023-02-19T00:21:51.796Z,101723.97
2023-02-19T00:23:23.941Z,101724.00
2023-02-19T00:24:58.803Z,101730.97
2023-02-19T00:26:31.165Z,101717.91
2023-02-19T00:28:03.239Z,101712.66
2023-02-19T00:29:35.224Z,101725.75
2023-02-19T00:31:09.312Z,101714.41
2023-02-19T00:32:41.535Z,101710.94
2023-02-19T00:34:16.206Z,101713.53
2023-02-19T00:35:48.426Z,101718.78
2023-02-19T00:37:20.473Z,101716.16
2023-02-19T00:38:52.797Z,101721.41
2023-02-19T00:40:26.283Z,101711.81
2023-02-19T00:42:01.013Z,101703.97
2023-02-19T00:43:33.015Z,101710.97
2023-02-19T00:45:05.283Z,101703.97
2023-02-19T00:46:39.592Z,101703.13
2023-02-19T00:48:13.023Z,101707.47
2023-02-19T00:49:47.445Z,101717.03
2023-02-19T00:51:20.959Z,101715.31
2023-02-19T00:52:53.034Z,101714.44
2023-02-19T00:54:25.310Z,101710.09
2023-02-19T00:55:59.825Z,101705.75
2023-02-19T00:57:34.849Z,101710.97
2023-02-19T00:59:07.033Z,101703.13
2023-02-19T01:00:43.975Z,101709.22
2023-02-19T01:02:15.997Z,101710.09
2023-02-19T01:03:48.569Z,101710.97
2023-02-19T01:05:20.626Z,101711.84
2023-02-19T01:06:52.931Z,101717.97
2023-02-19T01:08:27.753Z,101710.97
2023-02-19T01:09:59.802Z,101709.22
2023-02-19T01:11:32.528Z,101717.94
2023-02-19T01:13:04.643Z,101715.31
2023-02-19T01:14:36.837Z,101710.97
2023-02-19T01:16:14.062Z,101724.03
2023-02-19T01:17:47.825Z,101724.91
2023-02-19T01:19:21.840Z,101731.88
2023-02-19T01:20:53.785Z,101727.50
2023-02-19T01:22:25.821Z,101724.91
2023-02-19T01:23:58.904Z,101719.69
2023-02-19T01:25:33.943Z,101727.53
2023-02-19T01:27:06.028Z,101731.00
2023-02-19T01:28:38.064Z,101730.13
2023-02-19T01:30:10.743Z,101723.16
2023-02-19T01:31:43.082Z,101728.41
2023-02-19T01:33:15.152Z,101731.00
2023-02-19T01:34:47.159Z,101732.75
2023-02-19T01:36:20.225Z,101730.16
2023-02-19T01:37:52.229Z,101736.25
2023-02-19T01:39:24.235Z,101742.34
2023-02-19T01:41:00.753Z,101731.88
2023-02-19T01:42:33.107Z,101738.00
2023-02-19T01:44:13.966Z,101737.13
2023-02-19T01:45:46.824Z,101734.50
2023-02-19T01:47:19.277Z,101742.38
2023-02-19T01:49:35.490Z,101742.38
2023-02-19T01:51:12.933Z,101739.75
2023-02-19T01:53:05.611Z,101739.75
2023-02-19T01:54:38.918Z,101738.88
2023-02-19T01:56:13.770Z,101738.88
2023-02-19T01:57:47.494Z,101744.09
2023-02-19T01:59:36.690Z,101744.09
2023-02-19T02:01:14.109Z,101740.59
2023-02-19T02:02:52.418Z,101746.69
2023-02-19T02:04:30.270Z,101748.41
2023-02-19T02:06:14.712Z,101747.56
2023-02-19T02:08:05.281Z,101751.03
2023-02-19T02:09:56.127Z,101748.44
2023-02-19T02:11:28.476Z,101747.56
2023-02-19T02:13:00.594Z,101754.53
2023-02-19T02:14:35.620Z,101751.91
2023-02-19T02:16:46.020Z,101745.78
2023-02-19T02:18:29.876Z,101741.41
2023-02-19T02:20:14.917Z,101751.03
2023-02-19T02:22:12.789Z,101749.25
2023-02-19T02:23:49.445Z,101744.00
2023-02-19T02:25:38.848Z,101735.31
2023-02-19T02:27:39.716Z,101736.16
2023-02-19T02:29:26.754Z,101743.13
2023-02-19T02:31:04.366Z,101734.41
2023-02-19T02:32:53.585Z,101734.41
2023-02-19T02:34:35.655Z,101737.91
2023-02-19T02:36:18.185Z,101739.66
2023-02-19T02:37:55.470Z,101738.78
2023-02-19T02:39:34.327Z,101732.69
2023-02-19T02:41:07.094Z,101745.75
2023-02-19T02:42:40.652Z,101738.78
2023-02-19T02:44:19.493Z,101738.78
2023-02-19T02:45:52.215Z,101738.78
2023-02-19T02:47:45.064Z,101738.81
2023-02-19T02:49:24.620Z,101741.41
2023-02-19T02:51:27.401Z,101741.41
2023-02-19T02:53:31.179Z,101742.25
2023-02-19T02:55:03.258Z,101750.09
2023-02-19T02:56:37.971Z,101745.75
2023-02-19T02:58:11.350Z,101740.50
2023-02-19T02:59:43.733Z,101744.00
2023-02-19T03:01:41.931Z,101745.75
2023-02-19T03:03:17.859Z,101740.53
2023-02-19T03:05:14.762Z,101756.22
2023-02-19T03:06:48.065Z,101757.06
2023-02-19T03:08:24.460Z,101754.47
2023-02-19T03:09:57.121Z,101755.31
2023-02-19T03:11:48.478Z,101752.72
2023-02-19T03:13:50.142Z,101752.72
2023-02-19T03:15:42.523Z,101759.69
2023-02-19T03:17:56.858Z,101761.44
2023-02-19T03:19:31.478Z,101762.28
2023-02-19T03:21:04.565Z,101763.16
2023-02-19T03:22:37.004Z,101764.91
2023-02-19T03:24:29.295Z,101760.53
2023-02-19T03:26:04.430Z,101766.63
2023-02-19T03:27:50.577Z,101767.50
2023-02-19T03:29:24.440Z,101773.63
2023-02-19T03:30:59.879Z,101769.25
2023-02-19T03:32:47.317Z,101769.25
2023-02-19T03:34:27.696Z,101772.72
2023-02-19T03:36:03.333Z,101779.69
2023-02-19T03:38:11.808Z,101777.09
2023-02-19T03:39:44.660Z,101778.84
2023-02-19T03:41:46.278Z,101776.22
2023-02-19T03:43:25.748Z,101777.97
2023-02-19T03:45:44.029Z,101777.97
2023-02-19T03:47:54.674Z,101782.31
2023-02-19T03:49:30.539Z,101780.56
2023-02-19T03:51:25.262Z,101785.78
2023-02-19T03:53:19.113Z,101790.13
2023-02-19T03:55:17.689Z,101792.75
2023-02-19T03:57:00.651Z,101786.66
2023-02-19T03:58:59.037Z,101795.34
2023-02-19T04:00:38.268Z,101804.91
2023-02-19T04:02:18.806Z,101800.53
2023-02-19T04:03:59.722Z,101811.88
2023-02-19T04:05:33.992Z,101809.22
2023-02-19T04:07:06.360Z,101815.34
2023-02-19T04:08:46.099Z,101809.22
2023-02-19T04:10:19.020Z,101812.72
2023-02-19T04:11:55.027Z,101822.28
2023-02-19T04:13:50.172Z,101819.66
2023-02-19T04:15:25.049Z,101826.63
2023-02-19T04:17:03.373Z,101821.38
2023-02-19T04:18:38.911Z,101836.16
2023-02-19T04:20:11.662Z,101834.41
2023-02-19T04:21:44.690Z,101836.13
2023-02-19T04:23:20.133Z,101832.63
2023-02-19T04:24:53.883Z,101842.19
2023-02-19T04:26:25.943Z,101843.00
2023-02-19T04:27:58.939Z,101846.44
2023-02-19T04:29:30.682Z,101836.00
2023-02-19T04:31:02.869Z,101847.28
2023-02-19T04:32:34.948Z,101842.03
2023-02-19T04:34:06.896Z,101843.75
2023-02-19T04:35:41.496Z,101840.28
2023-02-19T04:37:13.756Z,101856.84
2023-02-19T04:38:45.828Z,101844.63
2023-02-19T04:40:20.456Z,101849.00
2023-02-19T04:41:52.457Z,101861.22
2023-02-19T04:43:26.862Z,101862.06
2023-02-19T04:44:58.765Z,101858.56
2023-02-19T04:46:30.850Z,101856.81
2023-02-19T04:48:02.869Z,101869.88
2023-02-19T04:49:34.833Z,101868.13
2023-02-19T04:51:07.937Z,101869.00
2023-02-19T04:52:39.948Z,101878.56
2023-02-19T04:54:11.824Z,101879.44
2023-02-19T04:55:43.882Z,101876.84
2023-02-19T04:57:15.864Z,101881.19
2023-02-19T04:58:47.892Z,101873.31
2023-02-19T05:00:20.056Z,101874.19
2023-02-19T05:01:52.158Z,101884.63
2023-02-19T05:03:26.339Z,101882.91
2023-02-19T05:04:58.306Z,101895.06
2023-02-19T05:06:30.292Z,101899.41
2023-02-19T05:08:02.799Z,101895.00
2023-02-19T05:09:37.705Z,101897.59
2023-02-19T05:11:12.133Z,101897.53
2023-02-19T05:12:46.751Z,101905.38
2023-02-19T05:14:18.766Z,101909.69
2023-02-19T05:16:02.312Z,101915.81
2023-02-19T05:17:35.005Z,101916.66
2023-02-19T05:19:07.379Z,101921.03
2023-02-19T05:20:39.490Z,101920.16
2023-02-19T05:22:11.388Z,101927.09
2023-02-19T05:23:43.761Z,101916.63
2023-02-19T05:25:15.823Z,101928.81
2023-02-19T05:26:48.447Z,101916.59
2023-02-19T05:28:21.362Z,101918.34
2023-02-19T05:29:53.168Z,101924.47
2023-02-19T05:31:25.395Z,101927.03
2023-02-19T05:32:57.436Z,101924.41
2023-02-19T05:34:29.598Z,101920.06
2023-02-19T05:36:08.530Z,101920.94
2023-02-19T05:37:40.481Z,101925.25
2023-02-19T05:39:14.683Z,101929.63
2023-02-19T05:40:47.118Z,101937.44
2023-02-19T05:42:19.103Z,101933.97
2023-02-19T05:43:51.721Z,101931.34
2023-02-19T05:45:23.840Z,101931.34
2023-02-19T05:46:57.639Z,101935.72
2023-02-19T05:48:32.259Z,101940.06
2023-02-19T05:50:07.037Z,101932.25
2023-02-19T05:51:41.489Z,101937.44
2023-02-19T05:53:13.639Z,101944.44
2023-02-19T05:54:47.799Z,101940.88
2023-02-19T05:56:40.193Z,101943.53
2023-02-19T05:58:12.218Z,101940.00
2023-02-19T05:59:52.901Z,101934.78
2023-02-19T06:01:28.292Z,101937.41
2023-02-19T06:03:00.700Z,101944.38
2023-02-19T06:04:32.658Z,101946.97
2023-02-19T06:06:04.836Z,101947.81
2023-02-19T06:07:39.843Z,101942.59
2023-02-19T06:09:12.264Z,101941.72
2023-02-19T06:10:44.482Z,101946.94
2023-02-19T06:12:18.941Z,101951.28
2023-02-19T06:13:51.230Z,101942.56
2023-02-19T06:15:23.270Z,101957.31
2023-02-19T06:16:55.262Z,101946.88
2023-02-19T06:18:27.227Z,101939.97
2023-02-19T06:19:59.252Z,101953.84
2023-02-19T06:21:31.616Z,101954.75
2023-02-19T06:23:06.839Z,101949.50
2023-02-19T06:24:39.757Z,101966.94
2023-02-19T06:26:19.436Z,101962.59
2023-02-19T06:27:51.404Z,101965.19
2023-02-19T06:29:23.365Z,101959.97
2023-02-19T06:30:55.317Z,101966.06
2023-02-19T06:32:27.386Z,101962.53
2023-02-19T06:33:59.447Z,101961.66
2023-02-19T06:35:31.361Z,101973.84
2023-02-19T06:37:03.456Z,101973.84
2023-02-19T06:38:35.423Z,101981.69
2023-02-19T06:40:08.284Z,101978.22
2023-02-19T06:41:40.288Z,101981.69
2023-02-19T06:43:12.219Z,101982.56
2023-02-19T06:44:44.160Z,101981.66
2023-02-19T06:46:16.019Z,101987.78
2023-02-19T06:47:48.101Z,101999.09
2023-02-19T06:49:20.019Z,101990.41
2023-02-19T06:50:51.998Z,101997.34
2023-02-19T06:52:23.911Z,102005.16
2023-02-19T06:53:56.236Z,102013.84
2023-02-19T06:55:28.139Z,102013.00
2023-02-19T06:57:06.681Z,102012.13
2023-02-19T06:58:53.104Z,102021.72
2023-02-19T07:00:25.341Z,102015.59
2023-02-19T07:04:16.522Z,102019.94
2023-02-19T07:06:20.065Z,102024.34
2023-02-19T07:07:56.580Z,102023.41
2023-02-19T07:09:33.589Z,102026.88
2023-02-19T07:11:11.267Z,102024.22
2023-02-19T07:12:51.235Z,102022.53
2023-02-19T07:14:25.396Z,102021.69
2023-02-19T07:16:02.273Z,102029.53
2023-02-19T07:17:35.251Z,102030.41
2023-02-19T07:19:07.146Z,102033.03
2023-02-19T07:20:41.581Z,102033.84
2023-02-19T07:22:23.900Z,102045.16
2023-02-19T07:23:56.274Z,102047.72
2023-02-19T07:25:31.556Z,102055.53
2023-02-19T07:34:08.962Z,102073.81
2023-02-19T07:35:51.701Z,102071.19
2023-02-19T07:37:23.639Z,102079.09
2023-02-19T07:38:59.049Z,102082.53
2023-02-19T07:40:36.060Z,102074.66
2023-02-19T07:42:08.163Z,102082.53
2023-02-19T07:43:40.803Z,102086.94
2023-02-19T07:45:17.462Z,102085.22
2023-02-19T07:49:43.533Z,102088.72
2023-02-19T07:51:38.218Z,102095.78
2023-02-19T07:53:28.951Z,102097.47
2023-02-19T07:55:49.026Z,102105.34
2023-02-19T08:00:11.614Z,102108.88
2023-02-19T08:01:01.713Z,102102.78
2023-02-19T08:02:25.777Z,102115.88
2023-02-19T08:03:58.496Z,102110.66
2023-02-19T08:05:33.001Z,102122.03
2023-02-19T08:07:10.636Z,102113.34
2023-02-19T08:08:48.434Z,102129.03
2023-02-19T08:11:06.721Z,102136.00
2023-02-19T08:12:57.363Z,102131.63
2023-02-19T08:14:29.571Z,102130.72
2023-02-19T08:16:18.253Z,102134.16
2023-02-19T08:18:01.822Z,102130.66
2023-02-19T08:22:55.152Z,102138.44
2023-02-19T08:24:34.029Z,102140.16
2023-02-19T08:26:06.346Z,102145.31
2023-02-19T08:27:38.422Z,102139.28
2023-02-19T08:29:11.622Z,102140.16
2023-02-19T08:30:54.218Z,102138.50
2023-02-19T08:32:26.269Z,102140.22
2023-02-19T08:35:47.656Z,102147.22
2023-02-19T16:45:54.281Z,102491.09
2023-02-19T16:52:58.225Z,102503.97
2023-02-19T16:54:45.997Z,102510.94
2023-02-19T16:56:22.374Z,102508.34
2023-02-19T17:03:20.696Z,102523.00
2023-02-19T17:07:37.395Z,102522.91
2023-02-19T19:07:50.714Z,102610.78
2023-02-19T23:57:13.503Z,102576.97
2023-02-19T23:58:53.263Z,102581.25
